createdAt,value
2024-05-09T00:00:35.244Z,77.01
2024-05-09T00:03:07.103Z,77.31
2024-05-09T00:05:34.106Z,77.56
2024-05-09T00:08:00.981Z,77.40
2024-05-09T00:10:35.399Z,77.34
2024-05-09T00:13:04.830Z,77.46
2024-05-09T00:15:36.526Z,77.87
2024-05-09T00:18:04.982Z,77.86
2024-05-09T00:20:38.445Z,77.99
2024-05-09T00:23:08.755Z,77.82
2024-05-09T00:25:35.795Z,77.52
2024-05-09T00:28:02.944Z,77.78
2024-05-09T00:30:34.488Z,78.00
2024-05-09T00:33:08.215Z,77.86
2024-05-09T00:35:36.338Z,77.94
2024-05-09T00:38:03.284Z,78.15
2024-05-09T00:40:40.539Z,77.94
2024-05-09T00:43:10.583Z,78.21
2024-05-09T00:45:37.385Z,77.94
2024-05-09T00:48:07.541Z,77.97
2024-05-09T00:50:38.192Z,77.83
2024-05-09T00:53:11.075Z,77.87
2024-05-09T00:55:39.312Z,77.93
2024-05-09T00:58:07.244Z,78.15
2024-05-09T01:00:39.067Z,78.02
2024-05-09T01:03:09.019Z,78.05
2024-05-09T01:05:39.018Z,78.03
2024-05-09T01:08:06.607Z,78.40
2024-05-09T01:10:35.152Z,78.31
2024-05-09T01:13:05.995Z,78.07
2024-05-09T01:15:33.941Z,77.85
2024-05-09T01:18:02.829Z,77.64
2024-05-09T01:20:39.560Z,77.74
2024-05-09T01:23:09.939Z,77.92
2024-05-09T01:25:36.922Z,77.98
2024-05-09T01:28:03.658Z,78.49
2024-05-09T01:30:34.885Z,78.14
2024-05-09T01:33:04.848Z,78.09
2024-05-09T01:35:32.084Z,78.08
2024-05-09T01:37:58.803Z,78.26
2024-05-09T01:40:35.430Z,78.27
2024-05-09T01:43:04.985Z,78.43
2024-05-09T01:45:31.586Z,78.18
2024-05-09T01:47:58.678Z,77.90
2024-05-09T01:50:36.742Z,78.48
2024-05-09T01:53:07.043Z,78.30
2024-05-09T01:55:33.706Z,78.40
2024-05-09T01:58:00.270Z,78.14
2024-05-09T02:00:36.304Z,78.40
2024-05-09T02:03:09.265Z,78.05
2024-05-09T02:05:35.995Z,78.08
2024-05-09T02:08:02.625Z,78.34
2024-05-09T02:10:32.664Z,78.00
2024-05-09T02:12:59.917Z,78.16
2024-05-09T02:15:26.494Z,78.18
2024-05-09T02:17:53.332Z,78.11
2024-05-09T02:20:30.031Z,77.74
2024-05-09T02:23:03.637Z,78.00
2024-05-09T02:25:30.635Z,77.83
2024-05-09T02:27:57.215Z,78.29
2024-05-09T02:30:31.018Z,78.54
2024-05-09T02:33:05.932Z,78.43
2024-05-09T02:35:32.953Z,78.39
2024-05-09T02:37:59.814Z,78.35
2024-05-09T02:40:35.481Z,77.91
2024-05-09T02:43:05.261Z,78.65
2024-05-09T02:45:31.983Z,78.30
2024-05-09T02:47:58.831Z,78.28
2024-05-09T02:50:33.756Z,78.17
2024-05-09T02:53:05.099Z,78.11
2024-05-09T02:55:31.822Z,78.43
2024-05-09T02:57:58.358Z,78.69
2024-05-09T03:00:34.239Z,78.69
2024-05-09T03:03:10.129Z,78.41
2024-05-09T03:05:38.921Z,78.59
2024-05-09T03:08:06.009Z,78.85
2024-05-09T03:10:36.296Z,78.14
2024-05-09T03:13:14.496Z,78.80
2024-05-09T03:15:42.741Z,78.66
2024-05-09T03:18:09.876Z,78.66
2024-05-09T03:20:37.807Z,78.59
2024-05-09T03:23:06.423Z,78.50
2024-05-09T03:25:33.354Z,78.64
2024-05-09T03:28:00.068Z,78.27
2024-05-09T03:30:38.459Z,78.61
2024-05-09T03:33:18.032Z,78.38
2024-05-09T03:35:46.780Z,78.46
2024-05-09T03:38:13.825Z,78.29
2024-05-09T03:40:48.851Z,78.76
2024-05-09T03:43:16.461Z,78.99
2024-05-09T03:45:43.698Z,79.40
2024-05-09T03:48:10.749Z,79.05
2024-05-09T03:50:37.964Z,79.46
2024-05-09T03:53:05.226Z,79.43
2024-05-09T03:55:32.134Z,79.21
2024-05-09T03:57:58.843Z,79.13
2024-05-09T04:00:31.755Z,79.08
2024-05-09T04:03:06.271Z,79.27
2024-05-09T04:05:34.982Z,79.05
2024-05-09T04:08:01.925Z,79.62
2024-05-09T04:10:33.438Z,79.93
2024-05-09T04:13:01.748Z,79.59
2024-05-09T04:15:28.469Z,79.37
2024-05-09T04:17:55.261Z,79.74
2024-05-09T04:20:32.984Z,79.77
2024-05-09T04:23:13.069Z,79.83
2024-05-09T04:25:45.310Z,79.61
2024-05-09T04:28:12.715Z,79.88
2024-05-09T04:30:41.324Z,79.87
2024-05-09T04:33:11.990Z,80.09
2024-05-09T04:35:42.075Z,79.60
2024-05-09T04:38:09.240Z,79.42
2024-05-09T04:40:37.260Z,80.14
2024-05-09T04:43:14.594Z,79.71
2024-05-09T04:45:41.553Z,79.85
2024-05-09T04:48:09.045Z,79.50
2024-05-09T04:50:38.705Z,79.30
2024-05-09T04:53:08.744Z,79.47
2024-05-09T04:55:36.857Z,78.90
2024-05-09T04:58:03.640Z,79.40
2024-05-09T05:00:35.980Z,79.39
2024-05-09T05:03:12.760Z,79.22
2024-05-09T05:05:42.092Z,79.45
2024-05-09T05:08:17.435Z,79.27
2024-05-09T05:10:46.644Z,79.26
2024-05-09T05:13:20.144Z,79.32
2024-05-09T05:15:48.839Z,78.89
2024-05-09T05:18:15.643Z,79.13
2024-05-09T05:20:43.203Z,79.14
2024-05-09T05:23:15.165Z,79.07
2024-05-09T05:25:43.007Z,79.24
2024-05-09T05:28:10.255Z,78.74
2024-05-09T05:30:38.065Z,78.51
2024-05-09T05:33:06.125Z,78.56
2024-05-09T05:35:33.767Z,78.47
2024-05-09T05:38:00.599Z,77.54
2024-05-09T05:40:33.474Z,77.79
2024-05-09T05:43:11.311Z,77.31
2024-05-09T05:45:38.946Z,77.62
2024-05-09T05:48:07.254Z,77.34
2024-05-09T05:50:37.142Z,77.30
2024-05-09T05:53:09.589Z,76.95
2024-05-09T05:55:37.799Z,76.21
2024-05-09T05:58:04.691Z,75.48
2024-05-09T06:00:38.211Z,73.98
2024-05-09T06:03:07.213Z,72.57
2024-05-09T06:05:35.234Z,72.49
2024-05-09T06:08:01.974Z,73.85
2024-05-09T06:10:36.703Z,74.64
2024-05-09T06:13:05.896Z,75.05
2024-05-09T06:15:32.440Z,75.84
2024-05-09T06:17:59.477Z,75.84
2024-05-09T06:20:34.703Z,75.88
2024-05-09T06:23:04.313Z,76.20
2024-05-09T06:25:31.091Z,76.35
2024-05-09T06:27:57.662Z,76.78
2024-05-09T06:30:30.797Z,76.79
2024-05-09T06:33:06.039Z,76.97
2024-05-09T06:35:33.720Z,76.89
2024-05-09T06:38:00.778Z,76.75
2024-05-09T06:40:36.178Z,77.10
2024-05-09T06:43:05.668Z,76.32
2024-05-09T06:45:32.248Z,76.79
2024-05-09T06:47:59.117Z,76.82
2024-05-09T06:50:28.597Z,76.13
2024-05-09T06:53:02.317Z,76.44
2024-05-09T06:55:29.137Z,76.88
2024-05-09T06:57:55.678Z,76.32
2024-05-09T07:00:30.200Z,76.35
2024-05-09T07:03:12.765Z,76.73
2024-05-09T07:05:40.945Z,76.09
2024-05-09T07:08:08.057Z,75.67
2024-05-09T07:10:36.285Z,75.54
2024-05-09T07:13:08.166Z,74.84
2024-05-09T07:15:34.684Z,74.94
2024-05-09T07:18:01.341Z,73.86
2024-05-09T07:20:34.173Z,73.31
2024-05-09T07:23:03.249Z,72.70
2024-05-09T07:25:30.172Z,72.53
2024-05-09T07:27:57.013Z,71.37
2024-05-09T07:30:32.527Z,70.75
2024-05-09T07:33:01.623Z,70.37
2024-05-09T07:35:29.124Z,67.42
2024-05-09T07:37:56.001Z,68.15
2024-05-09T07:40:32.292Z,68.99
2024-05-09T07:43:07.724Z,69.32
2024-05-09T07:52:32.433Z,67.80
2024-05-09T07:53:39.596Z,69.81
2024-05-09T07:56:11.907Z,69.02
2024-05-09T07:58:39.190Z,66.40
2024-05-09T08:01:06.133Z,67.90
2024-05-09T08:03:33.205Z,69.00
2024-05-09T08:05:59.985Z,67.08
2024-05-09T08:08:26.529Z,68.08
2024-05-09T08:10:53.116Z,68.38
2024-05-09T08:13:19.809Z,66.96
2024-05-09T08:15:46.463Z,66.82
2024-05-09T08:18:13.150Z,65.50
2024-05-09T08:20:41.455Z,64.90
2024-05-09T08:23:08.341Z,65.51
2024-05-09T08:25:34.909Z,63.99
2024-05-09T08:28:03.572Z,64.58
2024-05-09T08:30:36.314Z,65.53
2024-05-09T08:33:05.983Z,64.93
2024-05-09T08:35:33.295Z,63.76
2024-05-09T08:38:00.044Z,63.56
2024-05-09T08:40:33.960Z,60.44
2024-05-09T08:43:06.762Z,60.23
2024-05-09T08:45:38.486Z,59.31
2024-05-09T08:48:08.203Z,56.93
2024-05-09T08:50:39.519Z,58.95
2024-05-09T08:53:08.146Z,53.20
2024-05-09T08:55:39.412Z,58.72
2024-05-09T08:58:12.517Z,60.29
2024-05-09T09:00:42.117Z,56.25
2024-05-09T09:03:11.716Z,54.76
2024-05-09T09:05:40.075Z,54.49
2024-05-09T09:08:08.433Z,55.59
2024-05-09T09:10:35.600Z,57.04
2024-05-09T09:13:04.738Z,56.93
2024-05-09T09:15:31.909Z,55.49
2024-05-09T09:17:59.988Z,56.98
2024-05-09T09:20:34.161Z,52.19
2024-05-09T09:23:03.650Z,53.14
2024-05-09T09:25:30.279Z,52.45
2024-05-09T09:27:58.224Z,52.33
2024-05-09T09:30:35.271Z,52.27
2024-05-09T09:33:05.135Z,48.44
2024-05-09T09:35:32.160Z,50.23
2024-05-09T09:38:02.435Z,53.21
2024-05-09T09:40:36.135Z,52.93
2024-05-09T09:43:13.833Z,55.51
2024-05-09T09:45:43.215Z,55.53
2024-05-09T09:48:11.979Z,56.80
2024-05-09T09:50:40.128Z,55.38
2024-05-09T09:53:07.641Z,55.37
2024-05-09T09:55:35.612Z,54.77
2024-05-09T09:58:04.614Z,55.00
2024-05-09T10:00:33.704Z,54.22
2024-05-09T10:03:01.728Z,54.93
2024-05-09T10:05:30.119Z,54.82
2024-05-09T10:07:58.398Z,55.22
2024-05-09T10:10:32.173Z,50.76
2024-05-09T10:13:03.725Z,53.50
2024-05-09T10:15:41.964Z,50.77
2024-05-09T10:18:08.700Z,50.71
2024-05-09T10:20:54.506Z,48.97
2024-05-09T10:23:28.803Z,47.35
2024-05-09T10:26:00.318Z,49.44
2024-05-09T10:28:28.070Z,48.84
2024-05-09T10:31:11.282Z,48.61
2024-05-09T10:33:39.132Z,48.13
2024-05-09T10:36:32.202Z,47.60
2024-05-09T10:38:59.654Z,45.89
2024-05-09T10:41:26.170Z,46.24
2024-05-09T10:43:52.702Z,42.92
2024-05-09T10:46:19.816Z,43.58
2024-05-09T10:48:47.811Z,44.34
2024-05-09T10:51:15.118Z,46.90
2024-05-09T10:53:43.466Z,45.46
2024-05-09T10:56:10.938Z,46.30
2024-05-09T10:58:37.752Z,47.08
2024-05-09T11:01:07.048Z,46.10
2024-05-09T11:03:35.006Z,45.87
2024-05-09T11:06:02.119Z,46.81
2024-05-09T11:08:30.163Z,47.44
2024-05-09T11:10:57.003Z,47.04
2024-05-09T11:13:30.767Z,46.81
2024-05-09T11:15:59.906Z,46.40
2024-05-09T11:18:31.915Z,46.74
2024-05-09T11:21:01.658Z,47.88
2024-05-09T11:23:30.474Z,47.22
2024-05-09T11:25:58.520Z,43.54
2024-05-09T11:28:28.238Z,45.94
2024-05-09T11:31:10.470Z,47.19
2024-05-09T11:33:43.610Z,44.18
2024-05-09T11:36:10.714Z,46.19
2024-05-09T11:38:37.456Z,46.95
2024-05-09T11:41:05.383Z,44.89
2024-05-09T11:43:32.763Z,44.15
2024-05-09T11:45:59.849Z,47.14
2024-05-09T11:48:26.918Z,44.70
2024-05-09T11:50:54.883Z,45.32
2024-05-09T11:53:21.589Z,44.58
2024-05-09T11:55:48.210Z,46.50
2024-05-09T11:58:17.160Z,46.54
2024-05-09T12:00:44.408Z,47.76
2024-05-09T12:03:11.084Z,47.66
2024-05-09T12:05:37.831Z,45.54
2024-05-09T12:08:04.784Z,46.83
2024-05-09T12:10:34.148Z,46.68
2024-05-09T12:13:04.802Z,45.64
2024-05-09T12:15:32.986Z,45.72
2024-05-09T12:18:02.731Z,45.41
2024-05-09T12:20:36.622Z,45.97
2024-05-09T12:23:05.851Z,46.93
2024-05-09T12:25:32.436Z,48.58
2024-05-09T12:27:59.166Z,47.22
2024-05-09T12:30:35.177Z,46.36
2024-05-09T12:33:05.807Z,46.71
2024-05-09T12:35:32.745Z,45.48
2024-05-09T12:37:59.417Z,46.92
2024-05-09T12:40:34.577Z,45.50
2024-05-09T12:43:04.896Z,45.34
2024-05-09T12:45:31.935Z,45.43
2024-05-09T12:47:58.879Z,46.62
2024-05-09T12:50:32.023Z,44.51
2024-05-09T12:53:00.960Z,44.79
2024-05-09T12:55:28.538Z,45.00
2024-05-09T12:57:57.280Z,45.23
2024-05-09T13:00:31.082Z,45.45
2024-05-09T13:03:00.655Z,42.94
2024-05-09T13:05:27.948Z,46.18
2024-05-09T13:07:56.220Z,44.92
2024-05-09T13:10:29.413Z,43.62
2024-05-09T13:12:59.573Z,45.05
2024-05-09T13:15:26.492Z,44.66
2024-05-09T13:17:53.294Z,45.38
2024-05-09T13:20:28.967Z,45.99
2024-05-09T13:23:01.738Z,45.90
2024-05-09T13:25:28.455Z,46.18
2024-05-09T13:27:55.905Z,45.20
2024-05-09T13:30:29.708Z,44.04
2024-05-09T13:33:05.746Z,44.53
2024-05-09T13:35:34.285Z,46.80
2024-05-09T13:38:02.162Z,47.53
2024-05-09T13:40:33.695Z,48.00
2024-05-09T13:43:03.018Z,47.98
2024-05-09T13:45:29.878Z,48.36
2024-05-09T13:47:56.882Z,47.99
2024-05-09T13:50:31.540Z,46.64
2024-05-09T13:53:02.253Z,47.47
2024-05-09T13:55:28.923Z,49.39
2024-05-09T13:57:55.930Z,48.35
2024-05-09T14:00:32.329Z,48.60
2024-05-09T14:03:09.468Z,48.84
2024-05-09T14:05:36.348Z,48.53
2024-05-09T14:08:03.232Z,48.19
2024-05-09T14:10:31.872Z,48.64
2024-05-09T14:12:59.967Z,48.77
2024-05-09T14:15:26.779Z,49.12
2024-05-09T14:17:54.070Z,48.74
2024-05-09T14:20:30.116Z,48.85
2024-05-09T14:22:58.665Z,48.63
2024-05-09T14:25:26.576Z,49.89
2024-05-09T14:27:53.464Z,48.50
2024-05-09T14:30:29.717Z,49.43
2024-05-09T14:33:01.560Z,49.52
2024-05-09T14:35:28.230Z,48.95
2024-05-09T14:37:54.851Z,48.76
2024-05-09T14:40:31.101Z,48.63
2024-05-09T14:43:06.444Z,49.15
2024-05-09T14:45:34.368Z,46.87
2024-05-09T14:48:01.347Z,47.32
2024-05-09T14:50:35.037Z,47.44
2024-05-09T14:53:05.902Z,46.82
2024-05-09T14:55:35.733Z,48.88
2024-05-09T14:58:03.514Z,48.61
2024-05-09T15:00:35.625Z,49.01
2024-05-09T15:03:03.784Z,47.03
2024-05-09T15:05:30.702Z,48.11
2024-05-09T15:07:58.108Z,47.51
2024-05-09T15:10:33.685Z,46.61
2024-05-09T15:13:02.808Z,46.31
2024-05-09T15:15:29.586Z,48.36
2024-05-09T15:17:56.597Z,45.86
2024-05-09T15:20:31.292Z,46.39
2024-05-09T15:23:02.553Z,45.05
2024-05-09T15:25:29.425Z,46.32
2024-05-09T15:27:56.193Z,45.08
2024-05-09T15:32:52.511Z,45.50
2024-05-09T15:35:20.342Z,46.51
2024-05-09T15:37:48.389Z,44.77
2024-05-09T15:40:22.094Z,44.60
2024-05-09T15:42:57.667Z,46.32
2024-05-09T15:45:24.311Z,44.69
2024-05-09T15:47:50.947Z,44.72
2024-05-09T15:50:27.585Z,45.14
2024-05-09T15:52:59.178Z,45.27
2024-05-09T15:55:25.738Z,47.38
2024-05-09T15:57:52.370Z,47.98
2024-05-09T16:00:28.409Z,46.41
2024-05-09T16:03:01.017Z,47.27
2024-05-09T16:05:27.915Z,48.37
2024-05-09T16:07:54.767Z,47.18
2024-05-09T16:10:25.948Z,46.37
2024-05-09T16:12:58.884Z,46.53
2024-05-09T16:15:25.504Z,47.78
2024-05-09T16:17:52.144Z,47.09
2024-05-09T16:20:29.621Z,48.22
2024-05-09T16:23:04.958Z,46.79
2024-05-09T16:25:31.636Z,47.40
2024-05-09T16:27:58.355Z,46.93
2024-05-09T16:30:31.771Z,48.25
2024-05-09T16:33:02.228Z,47.80
2024-05-09T16:35:29.116Z,48.32
2024-05-09T16:37:55.746Z,48.98
2024-05-09T16:40:30.194Z,47.96
2024-05-09T16:43:04.145Z,48.14
2024-05-09T16:45:31.160Z,48.71
2024-05-09T16:48:00.395Z,49.14
2024-05-09T16:50:32.473Z,46.80
2024-05-09T16:53:01.127Z,46.31
2024-05-09T16:55:27.896Z,45.74
2024-05-09T16:57:55.620Z,46.77
2024-05-09T17:00:31.627Z,45.94
2024-05-09T17:03:07.111Z,46.83
2024-05-09T17:05:34.775Z,48.38
2024-05-09T17:08:01.927Z,50.58
2024-05-09T17:10:33.030Z,51.71
2024-05-09T17:13:02.394Z,52.46
2024-05-09T17:15:29.677Z,51.96
2024-05-09T17:17:56.605Z,52.02
2024-05-09T17:20:31.270Z,51.74
2024-05-09T17:23:02.194Z,51.44
2024-05-09T17:25:29.053Z,51.78
2024-05-09T17:27:56.041Z,51.34
2024-05-09T17:30:29.130Z,50.92
2024-05-09T17:33:02.257Z,51.63
2024-05-09T17:35:29.047Z,52.36
2024-05-09T17:37:55.863Z,51.88
2024-05-09T17:40:30.877Z,53.35
2024-05-09T17:43:01.461Z,52.22
2024-05-09T17:45:28.271Z,53.07
2024-05-09T17:47:55.288Z,53.31
2024-05-09T17:50:27.949Z,52.87
2024-05-09T17:53:00.973Z,52.58
2024-05-09T17:55:27.784Z,52.59
2024-05-09T17:57:54.417Z,52.80
2024-05-09T18:00:29.307Z,54.08
2024-05-09T18:03:04.174Z,54.36
2024-05-09T18:05:31.163Z,54.28
2024-05-09T18:07:57.982Z,54.80
2024-05-09T18:10:32.587Z,55.40
2024-05-09T18:13:03.383Z,55.89
2024-05-09T18:15:29.950Z,56.13
2024-05-09T18:17:56.772Z,56.88
2024-05-09T18:20:33.089Z,57.21
2024-05-09T18:23:07.976Z,58.05
2024-05-09T18:25:35.097Z,58.68
2024-05-09T18:28:02.944Z,58.14
2024-05-09T18:30:34.748Z,58.63
2024-05-09T18:33:03.827Z,58.03
2024-05-09T18:35:30.721Z,58.57
2024-05-09T18:37:57.259Z,58.73
2024-05-09T18:42:53.322Z,59.84
2024-05-09T18:45:19.980Z,60.10
2024-05-09T18:47:46.711Z,61.15
2024-05-09T18:50:20.482Z,61.71
2024-05-09T18:52:54.288Z,61.47
2024-05-09T18:55:20.868Z,61.75
2024-05-09T18:57:47.491Z,61.15
2024-05-09T19:00:26.631Z,62.75
2024-05-09T19:03:00.511Z,62.41
2024-05-09T19:05:27.604Z,61.81
2024-05-09T19:07:54.427Z,62.22
2024-05-09T19:10:23.040Z,62.06
2024-05-09T19:12:52.869Z,63.26
2024-05-09T19:15:19.643Z,63.86
2024-05-09T19:17:48.214Z,64.06
2024-05-09T19:20:24.599Z,63.66
2024-05-09T19:22:55.799Z,63.83
2024-05-09T19:25:22.320Z,64.26
2024-05-09T19:27:49.036Z,64.14
2024-05-09T19:30:25.299Z,64.81
2024-05-09T19:33:00.924Z,65.08
2024-05-09T19:35:27.603Z,64.94
2024-05-09T19:37:54.179Z,65.54
2024-05-09T19:40:28.655Z,65.91
2024-05-09T19:42:58.527Z,65.87
2024-05-09T19:45:25.200Z,66.12
2024-05-09T19:47:51.959Z,66.28
2024-05-09T19:50:26.673Z,67.39
2024-05-09T19:52:59.526Z,66.83
2024-05-09T19:55:26.129Z,66.82
2024-05-09T19:57:52.899Z,67.06
2024-05-09T20:00:26.166Z,67.36
2024-05-09T20:02:56.315Z,67.18
2024-05-09T20:05:23.657Z,67.54
2024-05-09T20:07:50.294Z,67.67
2024-05-09T20:10:23.633Z,68.14
2024-05-09T20:12:53.786Z,68.45
2024-05-09T20:15:20.539Z,68.42
2024-05-09T20:17:47.329Z,68.92
2024-05-09T20:20:24.500Z,68.73
2024-05-09T20:22:59.740Z,69.14
2024-05-09T20:25:26.365Z,69.29
2024-05-09T20:27:52.958Z,69.56
2024-05-09T20:30:28.704Z,69.55
2024-05-09T20:32:59.958Z,69.99
2024-05-09T20:35:26.931Z,69.89
2024-05-09T20:37:53.563Z,69.95
2024-05-09T20:40:28.327Z,69.97
2024-05-09T20:42:59.192Z,69.96
2024-05-09T20:45:26.348Z,69.77
2024-05-09T20:47:53.267Z,70.15
2024-05-09T20:50:28.519Z,70.05
2024-05-09T20:53:02.836Z,70.65
2024-05-09T20:55:29.835Z,70.68
2024-05-09T20:57:56.799Z,70.51
2024-05-09T21:00:30.099Z,70.75
2024-05-09T21:03:05.081Z,71.20
2024-05-09T21:05:31.970Z,71.16
2024-05-09T21:07:58.730Z,71.01
2024-05-09T21:10:27.134Z,70.85
2024-05-09T21:12:56.402Z,71.29
2024-05-09T21:15:23.012Z,71.76
2024-05-09T21:17:49.643Z,71.87
2024-05-09T21:20:20.493Z,71.77
2024-05-09T21:22:50.740Z,72.58
2024-05-09T21:25:17.413Z,72.67
2024-05-09T21:27:44.116Z,72.68
2024-05-09T21:30:18.400Z,72.33
2024-05-09T21:32:50.217Z,72.11
2024-05-09T21:35:17.870Z,72.14
2024-05-09T21:37:44.556Z,72.49
2024-05-09T21:40:16.954Z,73.02
2024-05-09T21:42:50.667Z,72.80
2024-05-09T21:45:17.289Z,72.35
2024-05-09T21:47:44.064Z,72.80
2024-05-09T21:50:18.670Z,72.93
2024-05-09T21:52:49.845Z,73.85
2024-05-09T21:55:16.636Z,73.90
2024-05-09T21:57:43.421Z,73.62
2024-05-09T22:00:25.163Z,73.69
2024-05-09T22:02:59.306Z,73.52
2024-05-09T22:05:26.074Z,73.40
2024-05-09T22:07:52.585Z,73.51
2024-05-09T22:10:25.751Z,73.59
2024-05-09T22:12:56.692Z,73.85
2024-05-09T22:15:23.256Z,73.43
2024-05-09T22:17:49.909Z,73.79
2024-05-09T22:20:22.337Z,74.00
2024-05-09T22:22:55.604Z,73.68
2024-05-09T22:25:22.453Z,73.38
2024-05-09T22:27:49.094Z,73.49
2024-05-09T22:30:23.678Z,73.27
2024-05-09T22:32:54.286Z,73.50
2024-05-09T22:35:20.871Z,73.79
2024-05-09T22:37:47.525Z,73.96
2024-05-09T22:40:20.750Z,74.01
2024-05-09T22:42:55.003Z,73.78
2024-05-09T22:45:21.498Z,73.83
2024-05-09T22:47:48.163Z,74.06
2024-05-09T22:50:18.675Z,74.09
2024-05-09T22:52:52.441Z,74.12
2024-05-09T22:55:19.094Z,74.62
2024-05-09T22:57:45.667Z,74.98
2024-05-09T23:00:15.843Z,74.89
2024-05-09T23:02:42.904Z,74.43
2024-05-09T23:05:09.733Z,74.46
2024-05-09T23:07:36.521Z,74.40
2024-05-09T23:10:05.427Z,74.82
2024-05-09T23:12:35.365Z,74.96
2024-05-09T23:15:01.957Z,75.03
2024-05-09T23:17:28.621Z,74.82
2024-05-09T23:19:55.169Z,75.18
2024-05-09T23:22:21.804Z,75.13
2024-05-09T23:24:48.396Z,75.08
2024-05-09T23:27:14.944Z,75.14
2024-05-09T23:29:41.446Z,75.05
2024-05-09T23:32:09.407Z,75.53
2024-05-09T23:34:36.030Z,75.17
2024-05-09T23:37:02.686Z,75.02
2024-05-09T23:39:29.300Z,74.72
2024-05-09T23:41:55.821Z,75.33
2024-05-09T23:44:22.358Z,74.69
2024-05-09T23:46:49.010Z,74.76
2024-05-09T23:49:15.709Z,75.13
2024-05-09T23:51:42.292Z,75.56
2024-05-09T23:54:09.085Z,75.22
2024-05-09T23:56:35.622Z,75.14
2024-05-09T23:59:02.140Z,74.73
